Time;durP1;ratioP1;P1;durP2;ratioP2;P2;SDS_P1;SDS_P2;PMS_P1;PMS_P2;Temp;Humidity;BMP_temperature;BMP_pressure;BME280_temperature;BME280_humidity;BME280_pressure;Samples;Min_cycle;Max_cycle;Signal;HPM_P1;HPM_P2
2024/04/23 00:00:22;;;;;;;10.23;5.22;;;;;;;-1.57;100.00;97415.03;5369167;26;20075;-58
2024/04/23 00:02:49;;;;;;;10.40;4.88;;;;;;;-1.65;100.00;97412.41;5369179;26;20442;-59
2024/04/23 00:05:15;;;;;;;8.23;5.45;;;;;;;-1.68;100.00;97413.59;5378514;26;20004;-59
2024/04/23 00:07:42;;;;;;;7.30;4.20;;;;;;;-1.64;100.00;97412.22;5380553;26;20001;-58
2024/04/23 00:10:09;;;;;;;8.25;5.05;;;;;;;-1.73;100.00;97405.31;5367804;26;20000;-59
2024/04/23 00:12:35;;;;;;;9.60;4.40;;;;;;;-1.73;100.00;97408.78;5367904;26;20016;-57
2024/04/23 00:15:02;;;;;;;10.23;5.18;;;;;;;-1.70;100.00;97405.78;5373038;26;20454;-59
2024/04/23 00:17:29;;;;;;;9.70;4.97;;;;;;;-1.75;100.00;97397.50;5382478;26;20008;-58
2024/04/23 00:19:55;;;;;;;8.25;4.32;;;;;;;-1.68;100.00;97399.47;5374160;26;20007;-59
2024/04/23 00:22:22;;;;;;;7.63;4.35;;;;;;;-1.78;100.00;97399.66;5376649;26;20030;-59
2024/04/23 00:24:49;;;;;;;8.70;4.53;;;;;;;-1.82;100.00;97393.88;5366892;26;19996;-58
2024/04/23 00:27:15;;;;;;;7.68;4.78;;;;;;;-1.79;100.00;97393.56;5375143;26;20003;-59
2024/04/23 00:29:42;;;;;;;9.95;5.10;;;;;;;-1.80;100.00;97394.56;5377698;26;19997;-59
2024/04/23 00:32:08;;;;;;;9.73;4.63;;;;;;;-1.79;100.00;97393.56;5362782;26;20016;-60
2024/04/23 00:34:35;;;;;;;8.13;4.25;;;;;;;-1.80;100.00;97391.91;5374268;26;20026;-59
2024/04/23 00:37:02;;;;;;;9.25;4.68;;;;;;;-1.78;100.00;97392.53;5375581;26;20012;-58
2024/04/23 00:39:29;;;;;;;9.68;4.53;;;;;;;-1.71;100.00;97377.59;5377038;26;20003;-59
2024/04/23 00:41:55;;;;;;;8.88;4.93;;;;;;;-1.79;100.00;97380.28;5374267;26;20000;-59
2024/04/23 00:44:22;;;;;;;7.57;4.82;;;;;;;-1.83;100.00;97379.78;5377441;26;20011;-59
2024/04/23 00:46:50;;;;;;;8.95;4.90;;;;;;;-1.85;100.00;97375.63;5372694;26;20024;-59
2024/04/23 00:49:18;;;;;;;9.52;5.10;;;;;;;-1.86;100.00;97377.50;5370592;26;20000;-59
2024/04/23 00:51:52;;;;;;;8.27;4.30;;;;;;;-1.88;100.00;97381.31;5372447;26;20024;-59
2024/04/23 00:54:23;;;;;;;8.77;4.93;;;;;;;-2.01;100.00;97368.56;5371914;26;20012;-59
2024/04/23 00:56:50;;;;;;;7.63;4.88;;;;;;;-1.82;100.00;97375.31;5371344;26;20043;-59
2024/04/23 00:59:18;;;;;;;9.60;4.80;;;;;;;-1.83;100.00;97374.47;5380947;26;20014;-59
2024/04/23 01:01:46;;;;;;;11.32;4.55;;;;;;;-1.86;100.00;97368.69;5371747;26;20072;-59
2024/04/23 01:04:13;;;;;;;9.95;5.03;;;;;;;-1.76;100.00;97364.00;5365651;26;20001;-59
2024/04/23 01:06:40;;;;;;;8.32;4.35;;;;;;;-1.74;100.00;97362.00;5371074;26;20004;-58
2024/04/23 01:09:08;;;;;;;9.18;4.47;;;;;;;-1.92;100.00;97361.44;5372541;26;20012;-59
2024/04/23 01:11:35;;;;;;;8.65;4.20;;;;;;;-1.96;100.00;97366.22;5371982;26;20040;-59
2024/04/23 01:14:03;;;;;;;7.82;4.50;;;;;;;-2.09;100.00;97357.00;5350086;26;20001;-58
2024/04/23 01:16:37;;;;;;;8.77;4.28;;;;;;;-2.14;100.00;97361.19;5370705;26;20015;-59
2024/04/23 01:19:07;;;;;;;9.00;4.72;;;;;;;-2.16;100.00;97350.72;5379120;26;20034;-59
2024/04/23 01:22:04;;;;;;;7.90;4.28;;;;;;;-2.16;100.00;97357.84;5368456;26;20062;-58
2024/04/23 01:24:40;;;;;;;7.28;4.03;;;;;;;-2.14;100.00;97351.38;5367407;26;20004;-59
2024/04/23 01:27:06;;;;;;;9.52;5.28;;;;;;;-2.11;100.00;97350.19;5359074;26;20060;-59
2024/04/23 01:29:34;;;;;;;9.23;4.35;;;;;;;-2.14;100.00;97355.88;5368838;26;20056;-59
2024/04/23 01:32:02;;;;;;;9.10;4.43;;;;;;;-2.14;100.00;97363.81;5367023;26;20008;-59
2024/04/23 01:34:31;;;;;;;8.25;4.95;;;;;;;-2.16;100.00;97352.53;5370012;26;20053;-59
2024/04/23 01:36:58;;;;;;;9.23;4.95;;;;;;;-2.17;100.00;97346.44;5364888;26;20000;-58
2024/04/23 01:39:27;;;;;;;7.22;3.83;;;;;;;-2.24;100.00;97351.56;5370800;26;20054;-58
2024/04/23 01:41:54;;;;;;;11.02;4.30;;;;;;;-2.19;100.00;97353.72;5368824;26;20000;-58
2024/04/23 01:44:21;;;;;;;7.65;4.30;;;;;;;-2.19;100.00;97350.22;5372967;26;20001;-59
2024/04/23 01:46:48;;;;;;;8.00;4.97;;;;;;;-2.26;100.00;97348.28;5374515;26;20025;-59
2024/04/23 01:49:15;;;;;;;9.05;5.30;;;;;;;-2.32;100.00;97348.94;5372954;26;20012;-59
2024/04/23 01:51:41;;;;;;;9.52;4.93;;;;;;;-2.28;100.00;97352.09;5376588;26;19996;-59
2024/04/23 01:54:08;;;;;;;7.50;4.57;;;;;;;-2.30;100.00;97357.56;5370302;26;20011;-59
2024/04/23 01:56:35;;;;;;;10.60;4.55;;;;;;;-2.32;100.00;97351.59;5371224;26;20013;-59
2024/04/23 01:59:02;;;;;;;9.48;5.18;;;;;;;-2.40;100.00;97348.97;5374501;26;20020;-59
2024/04/23 02:01:30;;;;;;;7.47;4.70;;;;;;;-2.49;100.00;97349.00;5371265;26;20047;-59
2024/04/23 02:03:57;;;;;;;11.00;5.32;;;;;;;-2.44;100.00;97350.31;5375363;26;20034;-60
2024/04/23 02:06:24;;;;;;;13.90;5.32;;;;;;;-2.46;100.00;97347.84;5375274;26;20795;-58
2024/04/23 02:08:51;;;;;;;8.50;4.78;;;;;;;-2.37;100.00;97345.97;5377266;26;20008;-59
2024/04/23 02:11:18;;;;;;;8.82;5.20;;;;;;;-2.44;100.00;97342.38;5377726;26;20287;-59
2024/04/23 02:13:45;;;;;;;9.60;5.53;;;;;;;-2.43;100.00;97349.31;5381455;26;20360;-59
2024/04/23 02:16:11;;;;;;;9.65;4.85;;;;;;;-2.45;100.00;97346.00;5372528;26;19996;-59
2024/04/23 02:18:38;;;;;;;8.93;4.95;;;;;;;-2.51;100.00;97339.56;5362435;26;20055;-59
2024/04/23 02:21:05;;;;;;;8.77;5.20;;;;;;;-2.52;100.00;97344.03;5373453;26;20036;-58
2024/04/23 02:23:31;;;;;;;11.35;5.80;;;;;;;-2.62;100.00;97340.72;5387417;26;20016;-59
2024/04/23 02:25:58;;;;;;;7.50;4.63;;;;;;;-2.69;100.00;97345.88;5369116;26;21124;-59
2024/04/23 02:28:25;;;;;;;8.40;4.75;;;;;;;-2.69;100.00;97348.50;5374154;26;20053;-57
2024/04/23 02:30:52;;;;;;;8.20;5.22;;;;;;;-2.63;100.00;97347.03;5377292;26;20019;-58
2024/04/23 02:33:18;;;;;;;10.30;5.00;;;;;;;-2.66;100.00;97331.47;5373636;26;19999;-59
2024/04/23 02:35:45;;;;;;;13.02;5.28;;;;;;;-2.61;100.00;97343.19;5371922;26;20084;-58
2024/04/23 02:38:12;;;;;;;8.48;4.65;;;;;;;-2.50;100.00;97336.72;5369278;26;20018;-58
2024/04/23 02:40:38;;;;;;;10.48;5.82;;;;;;;-2.59;100.00;97339.56;5376241;26;20008;-58
2024/04/23 02:43:05;;;;;;;9.48;5.10;;;;;;;-2.65;100.00;97339.22;5369758;26;20075;-59
2024/04/23 02:45:32;;;;;;;9.57;5.28;;;;;;;-2.59;100.00;97334.28;5369170;26;20014;-58
2024/04/23 02:47:59;;;;;;;9.52;5.07;;;;;;;-2.55;100.00;97338.25;5371948;26;20016;-58
2024/04/23 02:50:26;;;;;;;9.98;5.22;;;;;;;-2.69;100.00;97329.16;5371621;26;20011;-59
2024/04/23 02:52:53;;;;;;;11.18;5.40;;;;;;;-2.65;100.00;97325.97;5371158;26;20012;-58
2024/04/23 02:55:20;;;;;;;10.82;5.85;;;;;;;-2.71;100.00;97347.03;5369759;26;20074;-58
2024/04/23 02:57:46;;;;;;;9.35;5.50;;;;;;;-2.78;100.00;97336.28;5368589;26;20745;-58
2024/04/23 03:00:13;;;;;;;11.55;6.07;;;;;;;-2.84;100.00;97340.41;5369869;26;20066;-57
2024/04/23 03:02:40;;;;;;;13.55;6.45;;;;;;;-2.94;100.00;97343.25;5360280;26;20014;-58
2024/04/23 03:05:06;;;;;;;11.73;5.13;;;;;;;-2.90;100.00;97344.59;5371758;26;20049;-59
2024/04/23 03:07:33;;;;;;;10.95;5.47;;;;;;;-2.92;100.00;97335.13;5343169;26;20685;-56
2024/04/23 03:10:00;;;;;;;9.52;5.50;;;;;;;-3.03;100.00;97336.28;5374820;26;20004;-57
2024/04/23 03:12:27;;;;;;;9.45;5.68;;;;;;;-3.02;100.00;97322.88;5368189;26;20023;-56
2024/04/23 03:14:53;;;;;;;7.85;5.38;;;;;;;-2.99;100.00;97332.31;5374965;26;20016;-58
2024/04/23 03:17:20;;;;;;;12.57;5.90;;;;;;;-2.94;100.00;97329.16;5371638;26;20413;-59
2024/04/23 03:19:46;;;;;;;11.70;6.22;;;;;;;-3.00;100.00;97330.66;5377498;26;20094;-58
2024/04/23 03:22:13;;;;;;;10.15;6.20;;;;;;;-2.98;100.00;97327.84;5371459;26;20000;-59
2024/04/23 03:24:40;;;;;;;8.95;4.78;;;;;;;-2.99;100.00;97319.06;5369235;26;20008;-59
2024/04/23 03:27:06;;;;;;;10.82;4.75;;;;;;;-3.04;100.00;97322.22;5368940;26;20012;-59
2024/04/23 03:29:33;;;;;;;13.80;6.50;;;;;;;-2.99;100.00;97321.72;5378411;26;20062;-59
2024/04/23 03:32:04;;;;;;;12.98;5.88;;;;;;;-3.02;100.00;97325.53;5380021;26;19996;-59
2024/04/23 03:34:31;;;;;;;13.52;5.65;;;;;;;-3.06;100.00;97318.09;5374858;26;19996;-59
2024/04/23 03:36:58;;;;;;;10.25;5.55;;;;;;;-3.02;100.00;97317.56;5377080;26;20506;-58
2024/04/23 03:39:25;;;;;;;10.90;6.18;;;;;;;-3.06;100.00;97313.59;5369962;26;20018;-59
2024/04/23 03:41:53;;;;;;;11.13;5.80;;;;;;;-3.13;100.00;97313.44;5368425;26;20027;-59
2024/04/23 03:44:20;;;;;;;9.65;5.38;;;;;;;-3.19;100.00;97310.63;5383930;26;20059;-59
2024/04/23 03:46:46;;;;;;;11.40;5.43;;;;;;;-3.22;100.00;97314.44;5378359;26;20016;-59
2024/04/23 03:49:13;;;;;;;9.98;5.65;;;;;;;-3.23;100.00;97312.78;5375056;26;20004;-60
2024/04/23 03:51:39;;;;;;;11.40;5.65;;;;;;;-3.22;100.00;97310.94;5375622;26;20487;-58
2024/04/23 03:54:06;;;;;;;7.97;4.95;;;;;;;-3.19;100.00;97305.34;5375337;26;20078;-58
2024/04/23 03:56:33;;;;;;;8.63;5.22;;;;;;;-3.13;100.00;97315.28;5372974;26;20005;-59
2024/04/23 03:58:59;;;;;;;10.95;5.15;;;;;;;-3.30;100.00;97315.28;5372311;26;20012;-59
2024/04/23 04:01:26;;;;;;;10.50;4.90;;;;;;;-3.22;100.00;97313.59;5374000;26;20051;-59
2024/04/23 04:06:38;;;;;;;9.75;6.03;;;;;;;-3.16;100.00;97302.38;5375503;26;20058;-58
2024/04/23 04:09:05;;;;;;;7.50;4.55;;;;;;;-3.20;100.00;97298.38;5375157;26;20004;-57
2024/04/23 04:11:32;;;;;;;10.25;4.75;;;;;;;-3.09;100.00;97308.66;5372956;26;20008;-59
2024/04/23 04:14:00;;;;;;;8.80;5.07;;;;;;;-3.15;100.00;97302.19;5374892;26;20020;-58
2024/04/23 04:16:28;;;;;;;10.70;5.00;;;;;;;-3.33;100.00;97309.47;5370541;26;20016;-59
2024/04/23 04:19:00;;;;;;;9.02;5.78;;;;;;;-3.32;100.00;97311.13;5378829;26;20000;-59
2024/04/23 04:21:26;;;;;;;9.98;4.53;;;;;;;-3.31;100.00;97300.34;5382407;26;20003;-59
2024/04/23 04:23:53;;;;;;;12.60;6.03;;;;;;;-3.34;100.00;97300.72;5376055;26;20032;-58
2024/04/23 04:26:20;;;;;;;11.23;6.05;;;;;;;-3.35;100.00;97293.75;5365722;26;20000;-59
2024/04/23 04:28:46;;;;;;;9.65;5.43;;;;;;;-3.23;100.00;97296.91;5368389;26;20004;-58
2024/04/23 04:31:13;;;;;;;8.55;4.95;;;;;;;-3.33;100.00;97297.06;5372418;26;20032;-59
2024/04/23 04:33:39;;;;;;;8.50;5.25;;;;;;;-3.19;100.00;97300.88;5372908;26;20051;-59
2024/04/23 04:36:06;;;;;;;11.20;5.45;;;;;;;-3.22;100.00;97295.06;5370212;26;20011;-58
2024/04/23 04:38:33;;;;;;;12.70;5.75;;;;;;;-3.33;100.00;97301.50;5369266;26;20015;-58
2024/04/23 04:41:00;;;;;;;9.00;5.30;;;;;;;-3.28;100.00;97291.28;5367284;26;20051;-59
2024/04/23 04:43:27;;;;;;;10.55;5.43;;;;;;;-3.23;100.00;97299.56;5363527;26;20009;-59
2024/04/23 04:45:53;;;;;;;11.85;5.93;;;;;;;-3.24;100.00;97302.34;5383625;26;20008;-59
2024/04/23 04:48:20;;;;;;;11.20;5.65;;;;;;;-3.20;100.00;97293.94;5366647;26;20015;-58
2024/04/23 04:50:47;;;;;;;9.82;6.00;;;;;;;-3.01;100.00;97297.22;5369609;26;20028;-59
2024/04/23 04:53:13;;;;;;;13.57;6.13;;;;;;;-3.08;100.00;97301.53;5370018;26;20150;-59
2024/04/23 04:55:40;;;;;;;13.10;6.15;;;;;;;-3.19;100.00;97300.88;5376637;26;20000;-59
2024/04/23 04:58:06;;;;;;;11.25;5.88;;;;;;;-3.17;100.00;97306.00;5372543;26;20043;-58
2024/04/23 05:00:33;;;;;;;10.13;5.82;;;;;;;-3.07;100.00;97301.34;5376260;26;20034;-59
2024/04/23 05:03:00;;;;;;;10.35;6.00;;;;;;;-2.83;100.00;97299.69;5370316;26;20015;-58
2024/04/23 05:05:26;;;;;;;11.50;5.97;;;;;;;-2.84;100.00;97302.50;5364962;26;20019;-60
2024/04/23 05:07:53;;;;;;;12.30;6.15;;;;;;;-2.82;100.00;97305.78;5364227;26;20016;-59
2024/04/23 05:10:19;;;;;;;12.10;6.78;;;;;;;-2.89;100.00;97301.19;5371694;26;20011;-59
2024/04/23 05:12:46;;;;;;;13.85;6.55;;;;;;;-2.72;100.00;97313.56;5377082;26;20004;-58
2024/04/23 05:15:14;;;;;;;12.30;7.10;;;;;;;-2.76;100.00;97311.25;5371436;26;20000;-59
2024/04/23 05:17:41;;;;;;;10.55;6.65;;;;;;;-2.63;100.00;97323.16;5373650;26;20027;-59
2024/04/23 05:20:10;;;;;;;10.32;6.28;;;;;;;-2.51;100.00;97321.00;5376557;26;20522;-59
2024/04/23 05:22:36;;;;;;;10.70;5.88;;;;;;;-2.31;100.00;97320.59;5367634;26;20082;-59
2024/04/23 05:25:04;;;;;;;12.93;7.47;;;;;;;-2.14;100.00;97319.53;5374496;26;20014;-59
2024/04/23 05:27:30;;;;;;;14.48;6.72;;;;;;;-1.77;100.00;97321.72;5370134;26;20045;-58
2024/04/23 05:29:57;;;;;;;13.90;7.22;;;;;;;-1.71;100.00;97319.19;5375207;26;20032;-59
2024/04/23 05:35:12;;;;;;;11.32;7.15;;;;;;;-1.43;100.00;97309.88;5363672;26;20008;-60
2024/04/23 05:37:39;;;;;;;11.20;6.90;;;;;;;-1.33;100.00;97314.97;5362960;26;19996;-60
2024/04/23 05:40:09;;;;;;;14.15;7.15;;;;;;;-1.14;100.00;97310.97;5366210;26;20008;-59
2024/04/23 05:42:36;;;;;;;11.18;6.18;;;;;;;-1.06;100.00;97315.41;5365214;26;20004;-58
2024/04/23 05:45:03;;;;;;;10.65;5.72;;;;;;;-0.90;100.00;97318.91;5369946;26;20009;-59
2024/04/23 05:47:29;;;;;;;11.02;5.32;;;;;;;-0.71;100.00;97322.91;5377973;26;20458;-61
2024/04/23 05:50:34;;;;;;;11.43;6.00;;;;;;;-0.70;100.00;97325.38;5376326;26;20020;-59
2024/04/23 05:53:58;;;;;;;10.80;6.07;;;;;;;-0.53;100.00;97317.25;5371021;26;20048;-60
2024/04/23 05:56:43;;;;;;;8.85;5.72;;;;;;;-0.46;100.00;97323.50;5352548;26;20018;-60
2024/04/23 05:59:09;;;;;;;10.57;5.25;;;;;;;-0.41;100.00;97326.44;5368930;26;20004;-59
2024/04/23 06:01:36;;;;;;;9.70;5.95;;;;;;;-0.45;100.00;97329.63;5373778;26;20003;-60
2024/04/23 06:04:03;;;;;;;8.73;5.57;;;;;;;-0.35;100.00;97329.38;5379136;26;20020;-60
2024/04/23 06:06:29;;;;;;;10.25;5.57;;;;;;;-0.33;100.00;97338.81;5376910;26;20012;-60
2024/04/23 06:08:56;;;;;;;8.57;5.82;;;;;;;-0.31;100.00;97336.81;5378939;26;20045;-59
2024/04/23 06:11:23;;;;;;;8.50;5.25;;;;;;;-0.13;100.00;97338.28;5376949;26;20073;-61
2024/04/23 06:14:05;;;;;;;10.80;5.80;;;;;;;-0.08;100.00;97346.53;5366561;26;20009;-61
2024/04/23 06:16:31;;;;;;;;;;;;;;;0.01;100.00;97341.13;5368918;26;19996;-60
2024/04/23 06:18:58;;;;;;;9.00;5.20;;;;;;;0.09;100.00;97341.84;5369555;26;20294;-61
2024/04/23 06:21:24;;;;;;;11.38;6.10;;;;;;;0.01;100.00;97336.63;5367472;26;20037;-59
2024/04/23 06:23:51;;;;;;;10.48;5.13;;;;;;;0.06;100.00;97347.53;5370150;26;20022;-61
2024/04/23 06:26:18;;;;;;;9.00;5.13;;;;;;;0.18;100.00;97344.41;5371549;26;20016;-59
2024/04/23 06:28:44;;;;;;;10.57;5.35;;;;;;;0.13;100.00;97334.31;5376258;26;20005;-60
2024/04/23 06:31:11;;;;;;;11.15;5.38;;;;;;;0.22;100.00;97345.69;5371428;26;20001;-60
2024/04/23 06:33:38;;;;;;;10.93;5.57;;;;;;;0.27;100.00;97343.28;5367484;26;20018;-61
2024/04/23 06:36:05;;;;;;;9.15;5.60;;;;;;;0.33;100.00;97342.53;5368920;26;20015;-60
2024/04/23 06:38:31;;;;;;;10.45;5.47;;;;;;;0.40;100.00;97339.13;5373131;26;20012;-60
2024/04/23 06:40:58;;;;;;;7.53;4.90;;;;;;;0.56;100.00;97332.75;5372221;26;20225;-60
2024/04/23 06:43:25;;;;;;;8.02;4.82;;;;;;;0.63;100.00;97339.78;5374169;26;20051;-60
2024/04/23 06:45:51;;;;;;;9.45;5.22;;;;;;;0.63;100.00;97331.78;5375231;26;20008;-60
2024/04/23 06:48:18;;;;;;;11.82;4.95;;;;;;;0.73;100.00;97328.81;5366520;26;20012;-59
2024/04/23 06:50:44;;;;;;;8.15;5.30;;;;;;;0.77;100.00;97332.75;5369576;26;20023;-46
2024/04/23 06:53:11;;;;;;;7.72;4.97;;;;;;;0.99;100.00;97335.44;5372841;26;20008;-42
2024/04/23 06:55:38;;;;;;;8.93;5.05;;;;;;;1.28;100.00;97333.63;5364548;26;23348;-45
2024/04/23 06:58:05;;;;;;;8.77;4.93;;;;;;;1.47;100.00;97317.94;5369438;26;20643;-46
2024/04/23 07:00:32;;;;;;;7.88;4.47;;;;;;;1.64;100.00;97314.97;5369999;26;19995;-42
2024/04/23 07:03:02;;;;;;;7.65;4.93;;;;;;;1.66;100.00;97320.97;5371902;26;20015;-44
2024/04/23 07:05:29;;;;;;;7.40;4.90;;;;;;;1.82;100.00;97325.16;5370862;26;20008;-54
2024/04/23 07:07:56;;;;;;;7.63;4.88;;;;;;;1.86;100.00;97321.06;5365738;26;20025;-54
2024/04/23 07:10:23;;;;;;;8.52;5.03;;;;;;;1.86;100.00;97329.06;5362111;26;20012;-58
2024/04/23 07:12:50;;;;;;;12.35;5.82;;;;;;;1.84;100.00;97324.97;5378090;26;20044;-57
2024/04/23 07:15:16;;;;;;;7.88;4.65;;;;;;;1.83;100.00;97317.97;5379576;26;20013;-59
2024/04/23 07:17:45;;;;;;;7.97;5.03;;;;;;;1.76;100.00;97323.25;5361382;26;20039;-58
2024/04/23 07:20:12;;;;;;;11.90;5.22;;;;;;;1.83;100.00;97326.78;5368375;26;20810;-59
2024/04/23 07:22:39;;;;;;;9.27;5.32;;;;;;;1.87;100.00;97322.72;5372529;26;20044;-58
2024/04/23 07:25:06;;;;;;;8.18;4.50;;;;;;;2.03;100.00;97318.88;5356945;26;20463;-58
2024/04/23 07:27:32;;;;;;;7.22;4.45;;;;;;;2.02;100.00;97316.41;5355552;26;20059;-60
2024/04/23 07:29:59;;;;;;;11.30;5.35;;;;;;;1.90;100.00;97314.31;5376811;26;20006;-58
2024/04/23 07:32:26;;;;;;;7.43;4.38;;;;;;;2.03;100.00;97304.72;5371276;26;20004;-55
2024/04/23 07:34:53;;;;;;;8.13;4.38;;;;;;;2.05;100.00;97300.81;5367081;26;20028;-59
2024/04/23 07:37:19;;;;;;;12.68;5.72;;;;;;;2.13;100.00;97297.16;5356552;26;20000;-58
2024/04/23 07:39:46;;;;;;;7.40;4.75;;;;;;;2.09;100.00;97303.91;5366663;26;20755;-55
2024/04/23 07:42:12;;;;;;;6.55;4.47;;;;;;;2.23;100.00;97299.44;5366845;26;20000;-59
2024/04/23 07:44:39;;;;;;;8.48;4.72;;;;;;;2.32;100.00;97297.44;5379437;26;22355;-59
2024/04/23 07:47:06;;;;;;;7.95;4.35;;;;;;;2.44;100.00;97298.47;5372094;26;20016;-60
2024/04/23 07:49:32;;;;;;;9.23;5.40;;;;;;;2.42;100.00;97297.88;5369823;26;20137;-59
2024/04/23 07:51:59;;;;;;;8.60;4.53;;;;;;;2.60;100.00;97296.47;5369676;26;20004;-58
2024/04/23 07:54:25;;;;;;;7.43;4.88;;;;;;;2.70;100.00;97296.88;5349478;26;20024;-58
2024/04/23 07:56:52;;;;;;;10.13;4.93;;;;;;;2.60;100.00;97307.16;5351613;26;20082;-55
2024/04/23 07:59:20;;;;;;;6.97;4.38;;;;;;;2.76;100.00;97299.81;5356383;26;20012;-54
2024/04/23 08:01:46;;;;;;;7.50;4.75;;;;;;;2.86;100.00;97295.69;5351915;26;20019;-55
2024/04/23 08:04:13;;;;;;;9.15;4.88;;;;;;;2.99;100.00;97302.09;5351232;26;20532;-59
2024/04/23 08:06:40;;;;;;;7.65;4.90;;;;;;;3.05;100.00;97300.41;5365845;26;20012;-60
2024/04/23 08:09:06;;;;;;;9.50;4.63;;;;;;;3.07;100.00;97293.03;5376605;26;19997;-58
2024/04/23 08:11:33;;;;;;;7.75;5.00;;;;;;;3.03;100.00;97295.31;5369058;26;20003;-57
2024/04/23 08:14:00;;;;;;;9.20;5.10;;;;;;;3.21;100.00;97297.34;5349942;26;20011;-60
2024/04/23 08:16:26;;;;;;;10.07;5.40;;;;;;;3.23;100.00;97295.28;5360783;26;20880;-61
2024/04/23 08:18:53;;;;;;;8.95;5.32;;;;;;;3.34;100.00;97293.00;5370203;26;20022;-58
2024/04/23 08:21:20;;;;;;;9.07;4.82;;;;;;;3.47;100.00;97294.88;5355518;26;20019;-56
2024/04/23 08:23:48;;;;;;;8.63;4.93;;;;;;;3.53;100.00;97302.06;5334711;26;20473;-53
2024/04/23 08:26:15;;;;;;;7.70;4.72;;;;;;;3.47;100.00;97293.00;5347344;26;19995;-52
2024/04/23 08:28:43;;;;;;;7.95;4.40;;;;;;;3.57;100.00;97289.91;5365505;26;20491;-57
2024/04/23 08:31:10;;;;;;;7.70;4.57;;;;;;;3.70;100.00;97293.59;5368412;26;20014;-58
2024/04/23 08:33:37;;;;;;;7.32;4.65;;;;;;;3.68;100.00;97287.63;5362119;26;20026;-57
2024/04/23 08:36:04;;;;;;;7.82;4.50;;;;;;;3.70;100.00;97291.75;5361589;26;20049;-58
2024/04/23 08:38:30;;;;;;;8.98;4.63;;;;;;;3.84;100.00;97280.97;5373365;26;19996;-58
2024/04/23 08:40:57;;;;;;;7.82;5.22;;;;;;;3.90;100.00;97274.78;5368461;26;20008;-59
2024/04/23 08:43:36;;;;;;;9.32;5.05;;;;;;;3.99;100.00;97275.38;5370551;26;20004;-59
2024/04/23 08:46:04;;;;;;;7.25;4.45;;;;;;;4.18;100.00;97278.19;5365796;26;20019;-56
2024/04/23 08:48:34;;;;;;;7.90;4.43;;;;;;;4.21;100.00;97283.13;5339461;26;20754;-58
2024/04/23 08:51:02;;;;;;;6.25;4.03;;;;;;;4.22;100.00;97280.22;5378024;26;20000;-58
2024/04/23 08:53:29;;;;;;;8.20;4.65;;;;;;;4.25;100.00;97282.50;5351520;26;20019;-58
2024/04/23 08:55:59;;;;;;;9.45;4.53;;;;;;;4.40;100.00;97279.53;5365387;26;20008;-57
2024/04/23 08:58:26;;;;;;;7.18;4.57;;;;;;;4.46;100.00;97290.44;5347961;26;20008;-53
2024/04/23 09:00:58;;;;;;;6.47;4.45;;;;;;;4.38;99.53;97276.22;5345062;26;20015;-58
2024/04/23 09:03:34;;;;;;;7.85;4.28;;;;;;;4.29;100.00;97288.22;5334430;26;20030;-57
2024/04/23 09:06:02;;;;;;;8.57;4.22;;;;;;;4.29;98.79;97278.34;5357269;26;20053;-59
2024/04/23 09:08:29;;;;;;;7.72;4.45;;;;;;;4.43;99.88;97280.97;5363902;26;20434;-59
2024/04/23 09:10:57;;;;;;;6.63;4.25;;;;;;;4.54;94.50;97274.88;5353768;26;20076;-59
2024/04/23 09:13:24;;;;;;;6.82;4.50;;;;;;;4.64;100.00;97276.31;5349059;26;21065;-59
2024/04/23 09:15:51;;;;;;;9.32;4.28;;;;;;;4.88;99.13;97273.84;5375994;26;20060;-60
2024/04/23 09:18:18;;;;;;;7.57;4.20;;;;;;;4.93;94.65;97272.16;5367715;26;20608;-61
2024/04/23 09:20:45;;;;;;;7.15;4.05;;;;;;;4.84;97.14;97275.34;5372604;26;20086;-54
2024/04/23 09:23:11;;;;;;;6.82;4.32;;;;;;;5.01;96.42;97281.00;5346353;26;21679;-59
2024/04/23 09:25:39;;;;;;;8.70;4.47;;;;;;;5.09;94.24;97280.72;5357264;26;20189;-59
2024/04/23 09:28:07;;;;;;;7.68;4.50;;;;;;;5.14;95.74;97288.94;5379102;26;20023;-59
2024/04/23 09:30:37;;;;;;;7.47;4.53;;;;;;;5.27;94.24;97282.63;5383920;26;20577;-60
2024/04/23 09:33:04;;;;;;;9.43;4.55;;;;;;;5.30;94.15;97276.00;5366941;26;20041;-61
2024/04/23 09:35:31;;;;;;;9.05;4.35;;;;;;;5.36;91.10;97267.06;5372145;26;20004;-60
2024/04/23 09:37:58;;;;;;;8.23;4.30;;;;;;;5.32;92.72;97274.75;5368583;26;20016;-59
2024/04/23 09:40:25;;;;;;;6.93;4.22;;;;;;;5.35;89.67;97265.44;5370120;26;20015;-59
2024/04/23 09:42:54;;;;;;;10.63;5.60;;;;;;;5.44;91.36;97258.72;5370838;26;20059;-59
2024/04/23 09:45:24;;;;;;;9.13;4.95;;;;;;;5.56;90.24;97258.81;5375690;26;20011;-60
2024/04/23 09:47:51;;;;;;;7.38;4.10;;;;;;;5.55;90.51;97259.88;5355387;26;20012;-59
2024/04/23 09:50:19;;;;;;;8.10;4.70;;;;;;;5.68;90.29;97261.56;5370952;26;20023;-60
2024/04/23 09:52:48;;;;;;;7.30;4.35;;;;;;;5.62;86.13;97249.06;5353628;26;20032;-60
2024/04/23 09:55:16;;;;;;;8.65;4.10;;;;;;;5.65;83.58;97245.09;5372326;26;20012;-60
2024/04/23 09:57:43;;;;;;;6.72;4.32;;;;;;;5.65;83.91;97237.88;5367757;26;20008;-60
2024/04/23 10:00:11;;;;;;;8.85;5.40;;;;;;;5.82;85.50;97245.34;5374360;26;20004;-59
2024/04/23 10:02:41;;;;;;;6.15;3.70;;;;;;;5.90;79.09;97247.69;5364121;26;20023;-58
2024/04/23 10:05:13;;;;;;;6.82;3.90;;;;;;;5.95;79.52;97238.97;5369929;26;19996;-59
2024/04/23 10:08:00;;;;;;;6.65;4.25;;;;;;;5.85;79.75;97243.00;5379328;26;20074;-60
2024/04/23 10:10:36;;;;;;;8.02;3.85;;;;;;;5.85;77.16;97243.00;5365120;26;20004;-60
2024/04/23 10:13:04;;;;;;;9.77;4.22;;;;;;;6.04;81.71;97226.09;5364060;26;20004;-59
2024/04/23 10:15:48;;;;;;;7.90;4.80;;;;;;;6.16;81.42;97223.44;5358930;26;20158;-59
2024/04/23 10:18:26;;;;;;;5.88;3.75;;;;;;;6.15;77.20;97237.94;5368561;26;20019;-59
2024/04/23 10:20:55;;;;;;;6.78;4.22;;;;;;;6.08;74.89;97225.41;5374657;26;20012;-59
2024/04/23 10:23:23;;;;;;;11.45;4.55;;;;;;;5.90;81.68;97220.81;5366568;26;20000;-60
2024/04/23 10:25:50;;;;;;;7.20;4.55;;;;;;;6.11;79.18;97221.44;5361595;26;20012;-60
2024/04/23 10:28:17;;;;;;;7.18;4.43;;;;;;;6.30;76.07;97219.53;5374528;26;20027;-60
2024/04/23 10:30:44;;;;;;;7.93;4.65;;;;;;;6.23;77.05;97224.19;5382847;26;20012;-61
2024/04/23 10:33:14;;;;;;;9.30;5.03;;;;;;;6.27;76.13;97227.22;5335462;26;20795;-58
2024/04/23 10:35:42;;;;;;;7.43;4.40;;;;;;;6.38;73.42;97221.91;5357026;26;20004;-59
2024/04/23 10:38:10;;;;;;;7.30;4.70;;;;;;;6.40;73.09;97227.03;5381540;26;20012;-58
2024/04/23 10:40:38;;;;;;;7.22;4.30;;;;;;;6.29;74.50;97217.88;5361206;26;20008;-60
2024/04/23 10:43:19;;;;;;;7.18;4.22;;;;;;;6.30;74.74;97205.28;5369434;26;20013;-58
2024/04/23 10:45:46;;;;;;;5.95;4.03;;;;;;;6.54;75.14;97210.72;5360897;26;20018;-57
2024/04/23 10:48:12;;;;;;;8.02;4.10;;;;;;;6.64;74.23;97213.69;5366581;26;20005;-59
2024/04/23 10:50:39;;;;;;;6.00;4.10;;;;;;;6.52;71.42;97218.22;5367803;26;19999;-59
2024/04/23 10:53:07;;;;;;;6.88;4.32;;;;;;;6.57;70.31;97207.56;5363477;26;20015;-59
2024/04/23 10:55:34;;;;;;;6.72;3.40;;;;;;;6.86;66.68;97213.94;5365281;26;20000;-56
2024/04/23 10:58:01;;;;;;;7.15;4.43;;;;;;;7.01;68.35;97213.47;5369679;26;20036;-57
2024/04/23 11:00:31;;;;;;;6.32;4.00;;;;;;;6.96;69.31;97207.97;5350956;26;20007;-57
2024/04/23 11:02:57;;;;;;;6.65;3.80;;;;;;;7.17;72.12;97203.09;5322784;26;20048;-59
2024/04/23 11:05:31;;;;;;;6.43;3.58;;;;;;;7.19;66.16;97203.66;5357361;26;19999;-56
2024/04/23 11:08:06;;;;;;;5.75;3.08;;;;;;;6.99;64.16;97193.25;5323079;26;20470;-58
2024/04/23 11:11:02;;;;;;;8.95;3.58;;;;;;;6.94;66.24;97193.13;5327463;26;20089;-57
2024/04/23 11:13:30;;;;;;;7.63;4.40;;;;;;;7.08;68.22;97189.13;5325985;26;20117;-59
2024/04/23 11:16:04;;;;;;;5.25;3.03;;;;;;;7.34;65.57;97187.03;5328141;26;20042;-57
2024/04/23 11:18:44;;;;;;;7.60;3.75;;;;;;;7.60;63.59;97181.38;5324217;26;20031;-58
2024/04/23 11:21:23;;;;;;;6.80;3.42;;;;;;;7.59;62.45;97185.94;5325386;26;21510;-57
2024/04/23 11:23:50;;;;;;;6.18;3.47;;;;;;;7.41;59.31;97176.16;5358775;26;20086;-56
2024/04/23 11:26:21;;;;;;;8.43;4.47;;;;;;;7.23;63.47;97172.50;5352452;26;20074;-57
2024/04/23 11:28:49;;;;;;;10.95;6.80;;;;;;;7.44;61.24;97169.47;5343958;26;20027;-62
2024/04/23 11:31:17;;;;;;;11.77;6.20;;;;;;;7.45;61.42;97158.47;5368092;26;20005;-59
2024/04/23 11:33:45;;;;;;;9.43;4.93;;;;;;;7.56;60.09;97175.66;5366000;26;20004;-57
2024/04/23 11:36:12;;;;;;;5.35;3.05;;;;;;;7.79;60.75;97171.25;5338787;26;20014;-57
2024/04/23 11:38:43;;;;;;;4.90;3.05;;;;;;;8.03;58.09;97174.69;5340355;26;20004;-54